createdAt,value
2023-02-22T00:00:39.981Z,101.30
2023-02-22T00:03:07.384Z,89.90
2023-02-22T00:08:00.323Z,95.70
2023-02-22T00:10:27.127Z,103.00
2023-02-22T00:12:55.094Z,109.50
2023-02-22T00:15:26.630Z,99.70
2023-02-22T00:17:54.478Z,101.50
2023-02-22T00:20:22.857Z,101.70
2023-02-22T00:22:51.134Z,103.20
2023-02-22T00:25:20.031Z,103.10
2023-02-22T00:27:47.743Z,105.40
2023-02-22T00:30:21.682Z,100.40
2023-02-22T00:32:49.247Z,101.50
2023-02-22T00:35:17.550Z,99.80
2023-02-22T00:37:48.122Z,102.50
2023-02-22T00:40:23.150Z,98.60
2023-02-22T00:42:49.778Z,99.90
2023-02-22T00:45:18.907Z,104.10
2023-02-22T00:47:45.016Z,101.00
2023-02-22T00:50:17.269Z,102.20
2023-02-22T00:52:44.658Z,104.00
2023-02-22T00:55:20.558Z,104.50
2023-02-22T00:57:46.846Z,101.60
2023-02-22T01:00:36.970Z,105.70
2023-02-22T01:03:05.526Z,97.40
2023-02-22T01:05:32.600Z,97.80
2023-02-22T01:08:00.252Z,99.80
2023-02-22T01:10:29.005Z,96.80
2023-02-22T01:12:56.083Z,94.20
2023-02-22T01:15:24.296Z,98.80
2023-02-22T01:17:52.907Z,90.40
2023-02-22T01:20:22.170Z,100.70
2023-02-22T01:22:50.292Z,104.50
2023-02-22T01:25:23.917Z,99.80
2023-02-22T01:27:51.645Z,102.20
2023-02-22T01:30:24.067Z,93.90
2023-02-22T01:32:52.334Z,93.90
2023-02-22T01:35:22.309Z,104.30
2023-02-22T01:37:48.458Z,100.20
2023-02-22T01:40:19.832Z,102.30
2023-02-22T01:42:50.953Z,96.30
2023-02-22T01:45:29.495Z,102.00
2023-02-22T01:48:13.376Z,105.30
2023-02-22T01:50:44.537Z,102.30
2023-02-22T01:53:16.994Z,103.10
2023-02-22T01:55:45.431Z,101.60
2023-02-22T01:58:13.854Z,104.50
2023-02-22T02:00:41.591Z,104.50
2023-02-22T02:03:14.406Z,108.20
2023-02-22T02:05:41.187Z,105.40
2023-02-22T02:08:22.488Z,100.50
2023-02-22T02:10:48.847Z,102.70
2023-02-22T02:13:15.966Z,104.40
2023-02-22T02:15:42.088Z,99.30
2023-02-22T02:18:11.696Z,102.20
2023-02-22T02:20:38.109Z,103.30
2023-02-22T02:23:23.843Z,98.00
2023-02-22T02:26:29.459Z,100.50
2023-02-22T02:29:23.818Z,105.50
2023-02-22T02:32:15.071Z,94.90
2023-02-22T02:35:10.839Z,95.40
2023-02-22T02:37:55.827Z,100.00
2023-02-22T02:40:22.079Z,91.80
2023-02-22T02:43:16.871Z,99.60
2023-02-22T02:46:11.002Z,104.50
2023-02-22T02:48:43.298Z,103.00
2023-02-22T02:51:13.805Z,103.90
2023-02-22T02:53:44.172Z,96.60
2023-02-22T02:56:10.209Z,106.40
2023-02-22T02:58:52.119Z,99.80
2023-02-22T03:01:49.882Z,101.90
2023-02-22T03:04:56.293Z,102.30
2023-02-22T03:07:32.860Z,103.10
2023-02-22T03:10:26.824Z,102.40
2023-02-22T03:13:17.646Z,96.60
2023-02-22T03:16:07.147Z,107.90
2023-02-22T03:18:42.424Z,97.60
2023-02-22T03:21:11.558Z,100.30
2023-02-22T03:23:51.624Z,98.10
2023-02-22T03:26:28.978Z,95.50
2023-02-22T03:28:56.961Z,97.80
2023-02-22T03:31:28.246Z,90.20
2023-02-22T03:34:00.249Z,100.90
2023-02-22T03:36:32.966Z,100.70
2023-02-22T03:39:03.702Z,108.40
2023-02-22T03:41:32.154Z,100.20
2023-02-22T03:44:06.373Z,96.70
2023-02-22T03:46:35.593Z,94.40
2023-02-22T03:49:09.771Z,94.40
2023-02-22T03:51:39.023Z,96.70
2023-02-22T03:54:07.113Z,101.90
2023-02-22T03:56:49.543Z,97.20
2023-02-22T03:59:19.526Z,100.20
2023-02-22T04:04:11.741Z,96.80
2023-02-22T04:06:38.405Z,105.00
2023-02-22T04:09:04.789Z,103.20
2023-02-22T04:11:31.598Z,111.00
2023-02-22T04:13:59.900Z,100.40
2023-02-22T04:16:26.015Z,106.50
2023-02-22T04:18:52.117Z,109.70
2023-02-22T04:21:19.386Z,104.00
2023-02-22T04:23:48.336Z,101.60
2023-02-22T04:26:14.917Z,97.10
2023-02-22T04:28:43.716Z,104.70
2023-02-22T04:31:15.935Z,107.50
2023-02-22T04:33:43.002Z,98.60
2023-02-22T04:36:12.994Z,113.70
2023-02-22T04:38:39.387Z,105.70
2023-02-22T04:43:32.698Z,109.80
2023-02-22T04:46:13.309Z,100.80
2023-02-22T04:48:39.422Z,103.90
2023-02-22T04:51:06.140Z,104.20
2023-02-22T04:53:32.804Z,96.90
2023-02-22T04:55:59.158Z,106.90
2023-02-22T04:58:26.389Z,117.70
2023-02-22T05:00:52.491Z,98.90
2023-02-22T05:03:18.686Z,105.10
2023-02-22T05:05:45.090Z,99.90
2023-02-22T05:08:11.132Z,101.70
2023-02-22T05:10:37.240Z,97.10
2023-02-22T05:13:04.282Z,104.60
2023-02-22T05:15:30.477Z,97.70
2023-02-22T05:17:56.565Z,99.90
2023-02-22T05:20:29.694Z,102.90
2023-02-22T05:22:57.534Z,109.50
2023-02-22T05:25:24.546Z,107.30
2023-02-22T05:27:53.142Z,108.70
2023-02-22T05:30:26.121Z,116.20
2023-02-22T05:32:52.770Z,103.70
2023-02-22T05:35:21.593Z,108.60
2023-02-22T05:37:50.119Z,105.60
2023-02-22T05:40:21.703Z,104.90
2023-02-22T05:42:49.132Z,99.90
2023-02-22T05:45:17.288Z,103.60
2023-02-22T05:47:44.361Z,110.40
2023-02-22T05:50:11.269Z,101.50
2023-02-22T05:52:38.131Z,103.50
2023-02-22T05:55:05.557Z,109.20
2023-02-22T05:59:57.851Z,103.00
2023-02-22T06:02:23.902Z,102.10
2023-02-22T06:04:50.234Z,104.10
2023-02-22T06:07:16.366Z,102.20
2023-02-22T06:09:42.449Z,109.90
2023-02-22T06:12:09.491Z,106.90
2023-02-22T06:14:36.255Z,109.70
2023-02-22T06:17:04.775Z,109.80
2023-02-22T06:19:30.830Z,106.80
2023-02-22T06:21:59.379Z,106.70
2023-02-22T06:24:25.565Z,108.60
2023-02-22T06:26:59.463Z,106.50
2023-02-22T06:29:26.957Z,103.20
2023-02-22T06:31:53.222Z,104.50
2023-02-22T06:34:21.448Z,105.50
2023-02-22T06:36:48.385Z,103.80
2023-02-22T06:39:15.927Z,97.00
2023-02-22T06:41:43.695Z,106.40
2023-02-22T06:44:10.703Z,101.20
2023-02-22T06:46:37.966Z,107.10
2023-02-22T06:49:04.851Z,104.20
2023-02-22T06:51:36.346Z,112.50
2023-02-22T06:54:05.783Z,104.40
2023-02-22T06:56:48.413Z,99.20
2023-02-22T06:59:15.101Z,103.60
2023-02-22T07:01:42.254Z,101.70
2023-02-22T07:04:08.831Z,102.00
2023-02-22T07:06:35.821Z,108.30
2023-02-22T07:09:03.257Z,103.20
2023-02-22T07:13:56.456Z,98.10
2023-02-22T07:16:22.450Z,98.40
2023-02-22T07:18:48.643Z,94.10
2023-02-22T07:21:14.878Z,104.00
2023-02-22T07:23:41.049Z,107.30
2023-02-22T07:26:07.151Z,106.40
2023-02-22T07:28:47.788Z,100.00
2023-02-22T07:31:14.912Z,101.60
2023-02-22T07:36:07.595Z,97.60
2023-02-22T07:38:36.289Z,100.00
2023-02-22T07:41:02.478Z,114.00
2023-02-22T07:43:30.598Z,116.30
2023-02-22T07:46:02.166Z,121.20
2023-02-22T07:48:30.524Z,115.30
2023-02-22T07:50:58.078Z,113.80
2023-02-22T07:53:30.241Z,116.20
2023-02-22T07:56:00.799Z,114.90
2023-02-22T07:58:31.716Z,113.90
2023-02-22T08:01:01.435Z,111.80
2023-02-22T08:03:35.975Z,112.60
2023-02-22T08:06:07.086Z,103.60
2023-02-22T08:08:33.948Z,122.40
2023-02-22T08:10:59.912Z,114.40
2023-02-22T08:13:26.039Z,116.90
2023-02-22T08:15:53.149Z,115.20
2023-02-22T08:18:20.549Z,121.50
2023-02-22T08:20:48.106Z,114.60
2023-02-22T08:23:16.375Z,119.70
2023-02-22T08:25:42.860Z,117.00
2023-02-22T08:28:11.768Z,108.00
2023-02-22T08:30:42.916Z,113.90
2023-02-22T08:33:13.811Z,114.80
2023-02-22T08:35:42.885Z,117.00
2023-02-22T08:38:18.775Z,112.60
2023-02-22T08:40:46.110Z,107.50
2023-02-22T08:43:13.291Z,113.70
2023-02-22T08:45:40.016Z,101.60
2023-02-22T08:48:06.322Z,102.70
2023-02-22T08:50:35.812Z,105.20
2023-02-22T08:53:04.954Z,93.00
2023-02-22T08:55:34.408Z,94.60
2023-02-22T08:58:02.512Z,83.80
2023-02-22T09:00:32.524Z,84.20
2023-02-22T09:03:00.038Z,93.10
2023-02-22T09:05:26.604Z,96.90
2023-02-22T09:07:52.809Z,89.70
2023-02-22T09:10:25.473Z,92.10
2023-02-22T09:12:52.140Z,86.70
2023-02-22T09:15:18.742Z,92.80
2023-02-22T09:17:45.107Z,82.50
2023-02-22T09:20:11.774Z,78.30
2023-02-22T09:25:22.767Z,81.10
2023-02-22T09:27:52.843Z,74.60
2023-02-22T09:30:32.056Z,67.10
2023-02-22T09:33:13.960Z,76.90
2023-02-22T09:35:41.592Z,87.00
2023-02-22T09:38:09.801Z,73.70
2023-02-22T09:40:44.479Z,74.30
2023-02-22T09:43:16.571Z,80.40
2023-02-22T09:46:13.275Z,76.10
2023-02-22T09:48:59.557Z,69.70
2023-02-22T09:51:36.918Z,85.40
2023-02-22T09:54:05.821Z,76.00
2023-02-22T09:56:33.603Z,75.00
2023-02-22T09:59:06.401Z,64.50
2023-02-22T10:01:59.029Z,48.80
2023-02-22T10:07:19.954Z,75.20
2023-02-22T10:09:48.428Z,68.60
2023-02-22T10:12:23.845Z,67.70
2023-02-22T10:15:11.342Z,63.90
2023-02-22T10:21:04.447Z,72.50
2023-02-22T10:23:38.354Z,69.70
2023-02-22T10:26:19.684Z,59.30
2023-02-22T10:29:10.121Z,73.90
2023-02-22T10:31:43.463Z,59.70
2023-02-22T10:34:23.159Z,68.90
2023-02-22T10:39:32.414Z,63.90
2023-02-22T10:42:06.238Z,63.60
2023-02-22T10:44:33.548Z,61.10
2023-02-22T10:47:02.073Z,67.60
2023-02-22T10:49:36.013Z,63.30
2023-02-22T10:52:10.633Z,65.60
2023-02-22T10:54:42.460Z,60.40
2023-02-22T10:57:11.589Z,65.20
2023-02-22T10:59:41.400Z,69.70
2023-02-22T11:02:36.914Z,74.40
2023-02-22T11:05:04.442Z,74.80
2023-02-22T11:07:33.323Z,65.10
2023-02-22T11:10:02.243Z,58.10
2023-02-22T11:12:32.789Z,70.50
2023-02-22T11:15:19.082Z,72.30
2023-02-22T11:17:52.260Z,75.30
2023-02-22T11:20:25.039Z,69.80
2023-02-22T11:23:01.375Z,63.70
2023-02-22T11:25:39.435Z,64.10
2023-02-22T11:28:08.487Z,59.00
2023-02-22T11:30:37.528Z,65.10
2023-02-22T11:33:22.920Z,65.20
2023-02-22T11:35:55.004Z,62.90
2023-02-22T11:38:23.610Z,65.50
2023-02-22T11:41:15.657Z,57.40
2023-02-22T11:43:44.010Z,60.30
2023-02-22T11:46:44.604Z,63.20
2023-02-22T11:49:24.024Z,65.30
2023-02-22T11:52:18.560Z,66.40
2023-02-22T11:55:26.718Z,65.40
2023-02-22T11:58:20.365Z,64.10
2023-02-22T12:01:01.497Z,59.50
2023-02-22T12:04:10.357Z,68.00
2023-02-22T12:07:28.669Z,67.20
2023-02-22T12:10:20.322Z,71.40
2023-02-22T12:13:16.486Z,70.80
2023-02-22T12:15:49.265Z,68.00
2023-02-22T12:18:37.107Z,72.10
2023-02-22T12:21:17.809Z,68.40
2023-02-22T12:23:56.164Z,66.20
2023-02-22T12:26:31.175Z,65.80
2023-02-22T12:29:08.082Z,62.40
2023-02-22T12:35:55.130Z,59.70
2023-02-22T12:41:52.717Z,71.50
2023-02-22T12:44:57.490Z,68.70
2023-02-22T12:47:56.775Z,74.10
2023-02-22T12:50:28.005Z,74.00
2023-02-22T12:53:06.000Z,81.40
2023-02-22T12:55:48.161Z,71.90
2023-02-22T12:58:41.508Z,63.70
2023-02-22T13:01:19.445Z,56.00
2023-02-22T13:03:48.466Z,67.70
2023-02-22T13:06:52.309Z,80.50
2023-02-22T13:09:48.841Z,73.30
2023-02-22T13:12:36.214Z,71.50
2023-02-22T13:15:23.721Z,71.80
2023-02-22T13:18:25.974Z,76.60
2023-02-22T13:21:30.037Z,71.20
2023-02-22T13:25:15.431Z,69.80
2023-02-22T13:33:10.995Z,62.50
2023-02-22T13:36:22.483Z,79.30
2023-02-22T13:43:19.425Z,67.90
2023-02-22T13:46:04.455Z,75.00
2023-02-22T13:49:27.842Z,67.30
2023-02-22T14:20:40.352Z,73.10
2023-02-22T14:23:40.233Z,85.90
2023-02-22T14:26:34.155Z,72.30
2023-02-22T14:29:07.165Z,77.60
2023-02-22T14:31:51.222Z,79.00
2023-02-22T14:34:39.339Z,75.50
2023-02-22T14:37:13.302Z,74.30
2023-02-22T14:39:44.384Z,71.30
2023-02-22T14:42:17.125Z,70.10
2023-02-22T14:45:17.444Z,76.10
2023-02-22T14:48:00.415Z,72.80
2023-02-22T14:50:54.565Z,69.80
2023-02-22T14:53:36.046Z,73.50
2023-02-22T14:56:11.234Z,67.60
2023-02-22T14:58:44.639Z,72.70
2023-02-22T15:01:44.279Z,80.30
2023-02-22T15:04:43.123Z,73.00
2023-02-22T15:07:26.648Z,62.20
2023-02-22T15:10:06.245Z,71.30
2023-02-22T15:12:32.572Z,68.70
2023-02-22T15:15:31.205Z,75.00
2023-02-22T15:17:57.976Z,67.80
2023-02-22T15:20:25.255Z,72.40
2023-02-22T15:25:27.098Z,69.20
2023-02-22T15:27:53.188Z,77.80
2023-02-22T15:30:29.061Z,74.10
2023-02-22T15:33:10.049Z,71.10
2023-02-22T15:35:36.999Z,70.80
2023-02-22T15:38:19.710Z,79.90
2023-02-22T15:40:50.093Z,81.50
2023-02-22T15:43:28.009Z,76.70
2023-02-22T15:45:55.808Z,68.60
2023-02-22T15:48:22.774Z,73.20
2023-02-22T15:51:06.440Z,74.30
2023-02-22T15:53:39.450Z,74.20
2023-02-22T15:56:09.870Z,69.20
2023-02-22T15:58:36.480Z,68.00
2023-02-22T16:01:05.986Z,69.50
2023-02-22T16:03:44.141Z,74.50
2023-02-22T16:06:34.521Z,73.30
2023-02-22T16:09:12.457Z,66.10
2023-02-22T16:11:43.551Z,64.20
2023-02-22T16:14:30.050Z,83.30
2023-02-22T16:17:37.056Z,82.20
2023-02-22T16:20:38.138Z,71.90
2023-02-22T16:24:15.079Z,80.30
2023-02-22T16:29:26.855Z,77.20
2023-02-22T16:31:53.078Z,81.20
2023-02-22T16:34:21.771Z,87.00
2023-02-22T16:36:52.184Z,80.70
2023-02-22T16:39:30.448Z,75.90
2023-02-22T16:42:02.199Z,79.10
2023-02-22T16:44:28.614Z,84.10
2023-02-22T16:46:57.512Z,123.30
2023-02-22T16:49:24.294Z,93.90
2023-02-22T16:51:54.647Z,88.70
2023-02-22T16:54:27.768Z,89.10
2023-02-22T16:57:06.594Z,80.00
2023-02-22T16:59:40.892Z,87.30
2023-02-22T17:02:12.841Z,86.20
2023-02-22T17:04:39.611Z,80.70
2023-02-22T17:07:09.636Z,86.70
2023-02-22T17:09:38.600Z,88.50
2023-02-22T17:12:33.061Z,92.10
2023-02-22T17:15:07.021Z,96.90
2023-02-22T17:17:57.387Z,91.20
2023-02-22T17:20:29.884Z,81.60
2023-02-22T17:23:01.825Z,83.70
2023-02-22T17:25:38.645Z,92.70
2023-02-22T17:28:07.929Z,88.30
2023-02-22T17:30:41.562Z,88.80
2023-02-22T17:33:15.440Z,85.60
2023-02-22T17:35:41.490Z,89.50
2023-02-22T17:38:09.179Z,84.10
2023-02-22T17:40:39.352Z,87.60
2023-02-22T17:43:10.281Z,83.60
2023-02-22T17:45:49.119Z,78.00
2023-02-22T17:48:16.324Z,87.50
2023-02-22T17:50:44.621Z,87.40
2023-02-22T17:53:11.549Z,93.00
2023-02-22T17:55:40.076Z,93.70
2023-02-22T17:58:13.917Z,95.70
2023-02-22T18:00:43.292Z,94.30
2023-02-22T18:03:27.984Z,97.70
2023-02-22T18:10:52.242Z,93.10
2023-02-22T18:25:01.993Z,138.90
2023-02-22T18:27:37.854Z,131.00
2023-02-22T18:30:24.143Z,129.10
2023-02-22T18:36:56.156Z,114.90
2023-02-22T18:39:22.229Z,109.40
2023-02-22T18:42:02.057Z,107.80
2023-02-22T18:44:53.002Z,100.80
2023-02-22T18:47:25.320Z,106.80
2023-02-22T18:50:14.146Z,105.20
2023-02-22T18:53:04.948Z,107.70
2023-02-22T19:13:13.244Z,107.70
2023-02-22T19:16:16.783Z,102.60
2023-02-22T19:18:54.744Z,101.60
2023-02-22T19:21:33.138Z,104.70
2023-02-22T19:24:25.893Z,102.90
2023-02-22T19:27:10.718Z,108.40
2023-02-22T19:30:43.667Z,99.30
2023-02-22T19:33:26.939Z,108.60
2023-02-22T19:35:59.424Z,97.20
2023-02-22T19:39:14.707Z,104.80
2023-02-22T19:41:50.555Z,104.70
2023-02-22T19:44:25.858Z,104.70
2023-02-22T19:46:55.174Z,104.00
2023-02-22T19:49:22.813Z,110.80
2023-02-22T19:51:55.318Z,109.10
2023-02-22T19:54:30.322Z,108.90
2023-02-22T19:57:02.220Z,116.10
2023-02-22T19:59:31.026Z,108.80
2023-02-22T20:01:57.846Z,106.20
2023-02-22T20:04:54.805Z,110.80
2023-02-22T20:14:07.887Z,104.10
2023-02-22T20:16:34.649Z,97.10
2023-02-22T20:19:01.259Z,106.50
2023-02-22T20:21:37.796Z,101.40
2023-02-22T20:24:07.145Z,101.00
2023-02-22T20:26:36.486Z,105.40
2023-02-22T20:29:04.097Z,106.40
2023-02-22T20:31:31.285Z,105.20
2023-02-22T20:34:00.194Z,120.80
2023-02-22T20:36:29.042Z,102.20
2023-02-22T20:38:57.689Z,102.80
2023-02-22T20:41:30.854Z,113.60
2023-02-22T20:43:58.525Z,109.90
2023-02-22T20:46:26.390Z,109.90
2023-02-22T20:48:57.009Z,117.10
2023-02-22T20:51:23.676Z,100.40
2023-02-22T20:53:49.907Z,111.20
2023-02-22T20:56:23.344Z,107.30
2023-02-22T20:58:49.886Z,103.40
2023-02-22T21:01:22.080Z,103.60
2023-02-22T21:03:49.452Z,98.50
2023-02-22T21:06:20.609Z,105.10
2023-02-22T21:08:55.109Z,104.10
2023-02-22T21:11:22.915Z,102.00
2023-02-22T21:13:50.340Z,112.20
2023-02-22T21:16:20.571Z,109.40
2023-02-22T21:18:49.651Z,107.20
2023-02-22T21:21:15.912Z,100.60
2023-02-22T21:23:42.580Z,106.70
2023-02-22T21:26:17.442Z,102.40
2023-02-22T21:28:50.983Z,103.70
2023-02-22T21:31:22.219Z,98.70
2023-02-22T21:33:50.900Z,111.10
2023-02-22T21:36:17.919Z,106.00
2023-02-22T21:38:46.668Z,104.50
2023-02-22T21:41:14.952Z,109.30
2023-02-22T21:43:41.703Z,102.40
2023-02-22T21:46:12.839Z,103.60
2023-02-22T21:48:44.509Z,105.60
2023-02-22T21:51:15.597Z,109.60
2023-02-22T21:53:45.921Z,104.50
2023-02-22T21:56:18.408Z,107.40
2023-02-22T21:58:45.450Z,107.30
2023-02-22T22:01:16.583Z,99.30
2023-02-22T22:03:44.333Z,100.90
2023-02-22T22:06:12.861Z,115.10
2023-02-22T22:08:40.958Z,109.50
2023-02-22T22:11:12.015Z,110.70
2023-02-22T22:13:40.391Z,105.30
2023-02-22T22:16:14.145Z,103.70
2023-02-22T22:21:16.777Z,100.40
2023-02-22T22:23:47.270Z,120.30
2023-02-22T22:26:16.800Z,102.50
2023-02-22T22:28:58.071Z,96.10
2023-02-22T22:31:27.899Z,103.50
2023-02-22T22:34:33.845Z,106.10
2023-02-22T22:37:00.554Z,108.40
2023-02-22T22:39:40.227Z,107.70
2023-02-22T22:42:08.388Z,99.80
2023-02-22T22:44:51.871Z,106.50
2023-02-22T22:47:30.366Z,102.80
2023-02-22T22:50:51.602Z,110.80
2023-02-22T22:53:15.826Z,108.70
2023-02-22T22:55:42.166Z,113.20
2023-02-22T22:58:12.693Z,111.30
2023-02-22T23:00:40.496Z,102.80
2023-02-22T23:03:15.636Z,101.70
2023-02-22T23:05:42.149Z,101.80
2023-02-22T23:08:10.307Z,110.10
2023-02-22T23:10:41.257Z,98.90
2023-02-22T23:13:14.959Z,105.60
2023-02-22T23:15:42.858Z,104.10
2023-02-22T23:18:09.408Z,104.10
2023-02-22T23:20:38.643Z,103.30
2023-02-22T23:23:05.556Z,101.20
2023-02-22T23:25:32.918Z,106.40
2023-02-22T23:27:59.266Z,103.50
2023-02-22T23:30:26.146Z,102.50
2023-02-22T23:32:53.503Z,106.70
2023-02-22T23:35:19.686Z,102.50
2023-02-22T23:37:52.296Z,102.40
2023-02-22T23:40:18.665Z,104.50
2023-02-22T23:42:54.459Z,100.70
2023-02-22T23:45:22.629Z,104.60
2023-02-22T23:47:56.298Z,106.30
2023-02-22T23:50:28.863Z,103.10
2023-02-22T23:52:57.710Z,103.60
2023-02-22T23:55:30.755Z,102.60
2023-02-22T23:57:58.604Z,104.30
